Time;durP1;ratioP1;P1;durP2;ratioP2;P2;SDS_P1;SDS_P2;PMS_P1;PMS_P2;Temp;Humidity;BMP_temperature;BMP_pressure;BME280_temperature;BME280_humidity;BME280_pressure;Samples;Min_cycle;Max_cycle;Signal;HPM_P1;HPM_P2
2022/10/20 03:00:21;;;;;;;;;;;20.70;52.70;;;;;;5964273;23;46166;-70
2022/10/20 03:02:47;;;;;;;;;;;20.70;52.80;;;;;;4898530;28;45558;-69
2022/10/20 03:05:13;;;;;;;;;;;20.70;52.70;;;;;;4906846;28;45187;-68
2022/10/20 03:07:38;;;;;;;;;;;20.70;52.70;;;;;;4932473;28;44922;-71
2022/10/20 03:10:04;;;;;;;;;;;20.70;52.80;;;;;;4929495;28;45332;-70
2022/10/20 03:12:30;;;;;;;;;;;20.70;52.70;;;;;;4926658;28;45218;-65
2022/10/20 03:14:55;;;;;;;;;;;20.70;53.30;;;;;;4927567;28;45072;-69
2022/10/20 03:17:21;;;;;;;;;;;20.70;53.30;;;;;;4928456;28;44987;-68
2022/10/20 03:19:47;;;;;;;;;;;20.70;52.70;;;;;;4905069;28;45185;-67
2022/10/20 03:22:12;;;;;;;;;;;20.70;52.70;;;;;;4909312;28;44960;-65
2022/10/20 03:24:38;;;;;;;;;;;20.60;52.60;;;;;;4923359;28;46310;-68
2022/10/20 03:27:03;;;;;;;;;;;20.70;52.70;;;;;;4933561;28;45111;-67
2022/10/20 03:29:29;;;;;;;;;;;20.70;52.70;;;;;;4933352;28;45158;-67
2022/10/20 03:31:54;;;;;;;;;;;20.70;52.70;;;;;;4928800;28;45011;-67
2022/10/20 03:34:20;;;;;;;;;;;20.60;52.60;;;;;;4929557;28;45666;-72
2022/10/20 03:36:45;;;;;;;;;;;20.70;52.70;;;;;;4932164;28;45176;-67
2022/10/20 03:39:11;;;;;;;;;;;20.60;52.60;;;;;;4926705;28;45402;-73
2022/10/20 03:41:37;;;;;;;;;;;20.60;52.60;;;;;;4933682;28;45604;-66
2022/10/20 03:44:02;;;;;;;;;;;20.60;52.60;;;;;;4928850;28;45342;-70
2022/10/20 03:46:28;;;;;;;;;;;20.60;52.60;;;;;;4929810;28;44834;-67
2022/10/20 03:48:53;;;;;;;;;;;20.60;52.60;;;;;;4938785;28;45222;-68
2022/10/20 03:51:19;;;;;;;;;;;20.60;52.60;;;;;;4914525;28;45889;-67
2022/10/20 03:53:45;;;;;;;;;;;20.60;52.60;;;;;;4911108;28;45913;-66
2022/10/20 03:56:11;;;;;;;;;;;20.60;52.60;;;;;;4928851;28;44964;-69
2022/10/20 03:58:37;;;;;;;;;;;20.60;52.60;;;;;;4914705;28;46324;-67
2022/10/20 04:01:02;;;;;;;;;;;20.60;52.60;;;;;;4921958;28;45172;-65
2022/10/20 04:03:28;;;;;;;;;;;20.60;52.70;;;;;;4912767;28;46098;-68
2022/10/20 04:05:53;;;;;;;;;;;20.60;52.60;;;;;;4926258;28;44958;-66
2022/10/20 04:08:19;;;;;;;;;;;20.60;52.60;;;;;;4932713;28;44965;-67
2022/10/20 04:10:44;;;;;;;;;;;20.60;52.60;;;;;;4915030;28;45196;-68
2022/10/20 04:13:10;;;;;;;;;;;20.50;52.60;;;;;;4930970;28;45923;-68
2022/10/20 04:15:36;;;;;;;;;;;20.50;52.60;;;;;;4932726;23;44827;-70
2022/10/20 04:18:02;;;;;;;;;;;20.50;52.60;;;;;;4874401;28;45322;-71
2022/10/20 04:20:27;;;;;;;;;;;20.50;52.60;;;;;;4904160;28;45181;-71
2022/10/20 04:22:53;;;;;;;;;;;20.50;52.60;;;;;;4910051;28;46406;-72
2022/10/20 04:25:18;;;;;;;;;;;20.50;52.60;;;;;;4886349;28;44722;-71
2022/10/20 04:27:45;;;;;;;;;;;20.50;52.60;;;;;;4891249;28;45341;-72
2022/10/20 04:30:15;;;;;;;;;;;20.50;52.60;;;;;;4877913;28;45541;-71
2022/10/20 04:32:41;;;;;;;;;;;20.50;52.60;;;;;;4914151;28;45449;-71
2022/10/20 04:35:07;;;;;;;;;;;20.50;52.60;;;;;;4890369;28;45542;-71
2022/10/20 04:37:32;;;;;;;;;;;20.50;52.60;;;;;;4885835;28;45543;-71
2022/10/20 04:39:58;;;;;;;;;;;20.50;52.60;;;;;;4903046;28;45466;-72
2022/10/20 04:42:24;;;;;;;;;;;20.50;52.60;;;;;;4891853;28;46091;-70
2022/10/20 04:44:49;;;;;;;;;;;20.50;52.60;;;;;;4877447;28;45226;-70
2022/10/20 04:47:15;;;;;;;;;;;20.50;52.60;;;;;;4890943;28;45314;-71
2022/10/20 04:49:40;;;;;;;;;;;20.50;52.60;;;;;;4894299;28;45523;-71
2022/10/20 04:52:06;;;;;;;;;;;20.50;52.60;;;;;;4895385;28;45542;-71
2022/10/20 04:54:31;;;;;;;;;;;20.50;52.60;;;;;;4901799;28;45489;-71
2022/10/20 04:56:57;;;;;;;;;;;20.50;52.60;;;;;;4893835;28;45526;-72
2022/10/20 04:59:22;;;;;;;;;;;20.50;52.60;;;;;;4913989;28;45124;-72
2022/10/20 05:01:48;;;;;;;;;;;20.50;52.60;;;;;;4896304;28;44840;-70
2022/10/20 05:04:20;;;;;;;;;;;20.50;52.60;;;;;;4878879;28;44595;-71
2022/10/20 05:06:46;;;;;;;;;;;20.40;52.50;;;;;;4878782;28;45819;-72
2022/10/20 05:09:11;;;;;;;;;;;20.40;52.50;;;;;;4889220;28;45104;-71
2022/10/20 05:11:37;;;;;;;;;;;20.50;52.60;;;;;;4912176;28;45320;-71
2022/10/20 05:14:03;;;;;;;;;;;20.50;52.60;;;;;;4894735;28;45585;-71
2022/10/20 05:16:29;;;;;;;;;;;20.50;52.60;;;;;;4888065;28;45038;-71
2022/10/20 05:18:56;;;;;;;;;;;20.40;52.60;;;;;;4879743;28;45480;-71
2022/10/20 05:21:26;;;;;;;;;;;20.40;52.50;;;;;;4875297;29;46939;-72
2022/10/20 05:23:56;;;;;;;;;;;20.40;52.60;;;;;;4866302;28;45227;-71
2022/10/20 05:26:21;;;;;;;;;;;20.40;52.50;;;;;;4903521;28;44881;-71
2022/10/20 05:28:47;;;;;;;;;;;20.40;52.50;;;;;;4869781;29;45605;-71
2022/10/20 05:31:13;;;;;;;;;;;20.40;52.50;;;;;;4869550;28;45817;-71
2022/10/20 05:33:39;;;;;;;;;;;20.40;52.60;;;;;;4893416;28;45212;-71
2022/10/20 05:36:05;;;;;;;;;;;20.40;52.50;;;;;;4877787;28;45514;-70
2022/10/20 05:38:31;;;;;;;;;;;20.40;52.70;;;;;;4882130;28;45635;-72
2022/10/20 05:41:06;;;;;;;;;;;20.40;52.50;;;;;;4867892;28;45291;-71
2022/10/20 05:43:36;;;;;;;;;;;20.40;52.60;;;;;;4886204;28;45716;-71
2022/10/20 05:46:02;;;;;;;;;;;20.40;52.50;;;;;;4879863;28;45439;-71
2022/10/20 05:48:28;;;;;;;;;;;20.40;52.50;;;;;;4894249;28;45626;-71
2022/10/20 05:50:53;;;;;;;;;;;20.40;52.50;;;;;;4873529;28;45275;-71
2022/10/20 05:53:19;;;;;;;;;;;20.30;52.50;;;;;;4899836;28;45107;-72
2022/10/20 05:55:44;;;;;;;;;;;20.40;52.60;;;;;;4897277;28;45208;-71
2022/10/20 05:58:10;;;;;;;;;;;20.40;52.50;;;;;;4893621;28;45329;-72
2022/10/20 06:00:40;;;;;;;;;;;20.40;52.50;;;;;;4874130;29;45300;-70
2022/10/20 06:03:09;;;;;;;;;;;20.30;52.50;;;;;;4873630;29;45499;-72
2022/10/20 06:05:34;;;;;;;;;;;20.40;52.50;;;;;;4877400;28;45495;-71
2022/10/20 06:08:00;;;;;;;;;;;20.30;52.50;;;;;;4886726;28;45588;-71
2022/10/20 06:10:25;;;;;;;;;;;20.30;52.50;;;;;;4888608;28;45672;-72
2022/10/20 06:12:51;;;;;;;;;;;20.30;52.50;;;;;;4869372;29;45040;-72
2022/10/20 06:15:16;;;;;;;;;;;20.30;52.40;;;;;;4871930;28;45034;-72
2022/10/20 06:17:42;;;;;;;;;;;20.40;52.50;;;;;;4891230;28;45360;-72
2022/10/20 06:20:08;;;;;;;;;;;20.40;52.40;;;;;;4876263;28;45570;-71
2022/10/20 06:22:33;;;;;;;;;;;20.40;52.40;;;;;;4906346;28;45227;-72
2022/10/20 06:24:59;;;;;;;;;;;20.40;52.40;;;;;;4911295;28;45079;-71
2022/10/20 06:27:24;;;;;;;;;;;20.40;52.40;;;;;;4897790;28;45173;-72
2022/10/20 06:29:50;;;;;;;;;;;20.40;52.50;;;;;;4920091;28;45559;-72
2022/10/20 06:32:17;;;;;;;;;;;20.40;52.30;;;;;;4886882;28;45275;-71
2022/10/20 06:34:42;;;;;;;;;;;20.40;52.30;;;;;;4891323;28;45533;-72
2022/10/20 06:37:08;;;;;;;;;;;20.40;52.30;;;;;;4893126;28;45417;-71
2022/10/20 06:39:33;;;;;;;;;;;20.40;52.30;;;;;;4876543;28;46671;-72
2022/10/20 06:42:00;;;;;;;;;;;20.50;52.30;;;;;;4911919;28;45215;-72
2022/10/20 06:44:26;;;;;;;;;;;20.50;52.40;;;;;;4907949;28;45127;-70
2022/10/20 06:46:51;;;;;;;;;;;20.50;52.30;;;;;;4908539;28;45478;-71
2022/10/20 06:49:17;;;;;;;;;;;20.50;52.20;;;;;;4894866;28;46286;-71
2022/10/20 06:51:42;;;;;;;;;;;20.50;52.20;;;;;;4893845;28;45337;-70
2022/10/20 06:54:08;;;;;;;;;;;20.60;52.20;;;;;;4889945;28;45269;-72
2022/10/20 06:56:34;;;;;;;;;;;20.60;52.20;;;;;;4914370;28;45047;-72
2022/10/20 06:59:00;;;;;;;;;;;20.60;52.20;;;;;;4877318;28;46807;-71
2022/10/20 07:01:26;;;;;;;;;;;20.50;52.10;;;;;;4895653;28;45490;-73
2022/10/20 07:03:55;;;;;;;;;;;20.60;52.20;;;;;;4898390;28;45333;-69
2022/10/20 07:06:22;;;;;;;;;;;20.60;52.10;;;;;;4891935;28;45271;-72
2022/10/20 07:08:49;;;;;;;;;;;20.60;52.00;;;;;;4894520;28;45916;-70
2022/10/20 07:11:16;;;;;;;;;;;20.60;52.10;;;;;;4896447;28;45562;-70
2022/10/20 07:13:41;;;;;;;;;;;20.70;52.10;;;;;;4895418;28;45535;-71
2022/10/20 07:16:08;;;;;;;;;;;20.70;52.00;;;;;;4862710;28;44825;-72
2022/10/20 07:18:33;;;;;;;;;;;20.70;52.00;;;;;;4915320;28;45381;-72
2022/10/20 07:21:03;;;;;;;;;;;20.70;51.90;;;;;;4886300;28;45267;-72
2022/10/20 07:23:29;;;;;;;;;;;20.70;51.90;;;;;;4885475;28;45382;-71
2022/10/20 07:26:11;;;;;;;;;;;20.70;51.90;;;;;;4879537;28;45555;-72
2022/10/20 07:28:36;;;;;;;;;;;20.70;52.00;;;;;;4893612;28;45588;-71
2022/10/20 07:31:05;;;;;;;;;;;20.70;52.00;;;;;;4897561;28;45640;-70
2022/10/20 07:33:31;;;;;;;;;;;20.70;52.00;;;;;;4912420;28;45354;-70
2022/10/20 07:35:56;;;;;;;1.05;0.80;;;20.70;51.90;;;;;;4883843;28;45482;-70
2022/10/20 07:38:22;;;;;;;0.60;0.60;;;20.80;52.10;;;;;;4910872;28;46085;-71
2022/10/20 07:40:48;;;;;;;1.08;0.80;;;20.80;52.00;;;;;;4892142;28;44954;-71
2022/10/20 07:43:13;;;;;;;1.17;0.95;;;20.80;52.10;;;;;;4889256;28;45599;-71
2022/10/20 07:45:39;;;;;;;1.55;0.80;;;20.90;52.00;;;;;;4892059;28;45553;-71
2022/10/20 07:48:06;;;;;;;0.90;0.70;;;20.80;52.00;;;;;;4916127;28;45130;-71
2022/10/20 07:50:32;;;;;;;1.35;1.02;;;20.80;52.00;;;;;;4877228;28;45168;-70
2022/10/20 07:52:57;;;;;;;0.88;0.80;;;20.80;52.00;;;;;;4873289;28;45374;-71
2022/10/20 07:55:23;;;;;;;0.82;0.82;;;20.90;52.00;;;;;;4893079;28;45402;-71
2022/10/20 07:57:49;;;;;;;1.15;0.90;;;20.90;52.00;;;;;;4879890;28;46149;-71
2022/10/20 08:00:14;;;;;;;0.63;0.63;;;20.90;52.00;;;;;;4892263;28;45507;-71
2022/10/20 08:02:40;;;;;;;1.25;0.75;;;21.00;52.10;;;;;;4881204;28;45271;-71
2022/10/20 08:05:06;;;;;;;0.90;0.73;;;20.90;52.00;;;;;;4877541;28;45700;-71
2022/10/20 08:07:32;;;;;;;0.98;0.80;;;21.00;52.00;;;;;;4861451;28;46823;-71
2022/10/20 08:09:58;;;;;;;1.20;0.90;;;21.00;52.00;;;;;;4889553;28;44608;-71
2022/10/20 08:12:23;;;;;;;1.05;0.85;;;21.00;52.00;;;;;;4889055;28;44710;-71
2022/10/20 08:14:50;;;;;;;1.08;0.80;;;21.00;51.90;;;;;;4894273;28;45647;-71
2022/10/20 08:17:16;;;;;;;1.13;1.00;;;21.00;51.90;;;;;;4895376;28;46472;-70
2022/10/20 08:19:42;;;;;;;2.30;0.90;;;21.00;51.80;;;;;;4895541;28;45531;-71
2022/10/20 08:22:08;;;;;;;1.05;0.80;;;21.00;51.90;;;;;;4895947;28;45794;-71
2022/10/20 08:24:33;;;;;;;1.02;0.93;;;21.00;51.90;;;;;;4894875;28;45240;-71
2022/10/20 08:27:00;;;;;;;2.00;0.80;;;21.10;51.90;;;;;;4878623;28;45648;-72
2022/10/20 08:29:25;;;;;;;3.10;1.20;;;21.00;51.90;;;;;;4894711;28;45551;-71
2022/10/20 08:31:51;;;;;;;0.70;0.70;;;21.10;51.90;;;;;;4896472;28;45630;-71
2022/10/20 08:34:16;;;;;;;1.55;0.85;;;21.10;51.90;;;;;;4895119;28;44992;-71
2022/10/20 08:36:44;;;;;;;1.38;1.05;;;21.10;51.80;;;;;;4898235;28;45590;-69
2022/10/20 08:39:09;;;;;;;1.38;0.90;;;21.10;51.80;;;;;;4890882;28;45138;-72
2022/10/20 08:41:37;;;;;;;1.40;0.90;;;21.10;51.80;;;;;;4891016;28;45273;-70
2022/10/20 08:44:05;;;;;;;1.15;1.05;;;21.20;51.80;;;;;;4901171;28;45427;-71
2022/10/20 08:46:37;;;;;;;0.98;0.85;;;21.20;51.70;;;;;;4890483;28;46198;-72
2022/10/20 08:49:05;;;;;;;1.13;1.00;;;21.20;51.70;;;;;;4865205;28;45226;-72
2022/10/20 08:51:32;;;;;;;3.30;0.93;;;21.20;51.60;;;;;;4875602;28;45354;-70
2022/10/20 08:53:58;;;;;;;1.40;0.80;;;21.30;51.60;;;;;;4890561;28;45140;-70
2022/10/20 08:56:26;;;;;;;1.98;0.90;;;21.20;51.50;;;;;;4899126;28;45207;-72
2022/10/20 08:58:51;;;;;;;1.55;0.90;;;21.30;51.50;;;;;;4871803;28;45543;-71
2022/10/20 09:01:25;;;;;;;1.65;0.88;;;21.30;51.50;;;;;;4907503;28;45849;-70
2022/10/20 09:03:57;;;;;;;1.33;0.82;;;21.30;51.40;;;;;;4878269;28;45101;-70
2022/10/20 09:06:22;;;;;;;0.77;0.63;;;21.30;51.40;;;;;;4891034;28;45534;-72
2022/10/20 09:08:48;;;;;;;1.38;0.90;;;21.40;51.50;;;;;;4903573;28;45459;-71
2022/10/20 09:11:22;;;;;;;1.05;0.90;;;21.30;51.40;;;;;;4873983;28;45481;-71
2022/10/20 09:13:48;;;;;;;3.42;0.70;;;21.40;51.50;;;;;;4866521;28;45552;-71
2022/10/20 09:16:24;;;;;;;0.80;0.80;;;21.40;51.50;;;;;;4858914;28;45836;-69
2022/10/20 09:18:55;;;;;;;1.23;0.80;;;21.40;51.50;;;;;;4867392;28;45041;-70
2022/10/20 09:21:20;;;;;;;1.80;1.00;;;21.40;51.50;;;;;;4894096;28;45619;-72
2022/10/20 09:23:55;;;;;;;2.55;1.00;;;21.40;51.50;;;;;;4891333;28;45808;-71
2022/10/20 09:26:30;;;;;;;0.77;0.77;;;21.40;51.50;;;;;;4892844;28;45773;-72
2022/10/20 09:29:03;;;;;;;1.05;0.88;;;21.30;51.40;;;;;;4903647;28;45610;-69
2022/10/20 09:31:32;;;;;;;1.83;0.95;;;21.40;51.50;;;;;;4878411;28;45279;-71
2022/10/20 09:34:22;;;;;;;1.40;1.00;;;21.40;51.50;;;;;;4886615;28;45258;-70
2022/10/20 09:36:48;;;;;;;1.20;1.08;;;21.40;51.30;;;;;;4891384;28;45337;-71
2022/10/20 09:39:21;;;;;;;0.93;0.80;;;21.40;51.40;;;;;;4881435;28;45538;-71
2022/10/20 09:41:47;;;;;;;1.02;0.80;;;21.40;51.30;;;;;;4879123;28;45293;-72
2022/10/20 09:44:23;;;;;;;1.20;1.00;;;21.30;51.30;;;;;;4880447;28;45683;-71
2022/10/20 09:46:50;;;;;;;1.10;0.80;;;21.40;51.20;;;;;;4863718;28;46003;-72
2022/10/20 09:49:35;;;;;;;1.42;0.85;;;21.30;51.20;;;;;;4899678;28;45408;-71
2022/10/20 09:52:01;;;;;;;2.25;1.20;;;21.40;51.10;;;;;;4882660;28;45206;-72
2022/10/20 09:54:27;;;;;;;4.85;1.30;;;21.40;51.20;;;;;;4882348;28;45227;-72
2022/10/20 09:56:53;;;;;;;3.47;1.08;;;21.40;51.20;;;;;;4896495;28;45199;-72
2022/10/20 09:59:20;;;;;;;0.88;0.88;;;21.40;51.80;;;;;;4889120;28;45234;-71
2022/10/20 10:02:00;;;;;;;1.30;1.00;;;21.40;51.20;;;;;;4896320;28;45049;-71
2022/10/20 10:04:37;;;;;;;1.30;0.77;;;21.40;51.20;;;;;;4918654;28;44728;-69
2022/10/20 10:07:04;;;;;;;1.40;1.00;;;21.40;51.10;;;;;;4888871;28;45123;-71
2022/10/20 10:09:34;;;;;;;1.70;0.85;;;21.40;51.20;;;;;;4885847;28;44929;-71
2022/10/20 10:12:02;;;;;;;2.70;0.85;;;21.40;51.20;;;;;;4883813;28;45244;-72
2022/10/20 10:14:29;;;;;;;0.85;0.85;;;21.40;51.30;;;;;;4898450;28;44770;-71
2022/10/20 10:16:54;;;;;;;1.30;0.98;;;21.30;51.20;;;;;;4886614;28;46417;-71
2022/10/20 10:19:24;;;;;;;1.00;0.90;;;21.30;51.20;;;;;;4880115;28;45186;-72
2022/10/20 10:22:00;;;;;;;1.27;0.85;;;21.40;51.20;;;;;;4885628;28;45383;-71
2022/10/20 10:24:45;;;;;;;2.28;1.00;;;21.40;51.10;;;;;;4881705;28;45470;-72
2022/10/20 10:27:37;;;;;;;1.35;0.80;;;21.40;51.10;;;;;;4899438;28;45188;-72
2022/10/20 10:30:28;;;;;;;1.35;1.00;;;21.40;51.10;;;;;;4909747;28;45314;-72
2022/10/20 10:32:53;;;;;;;1.77;1.08;;;21.30;51.10;;;;;;4918451;28;45503;-72
2022/10/20 10:35:32;;;;;;;1.15;0.93;;;21.40;51.30;;;;;;4879686;28;45493;-72
2022/10/20 10:37:58;;;;;;;1.60;0.75;;;21.30;51.10;;;;;;4896877;28;46029;-72
2022/10/20 10:40:44;;;;;;;1.00;0.90;;;21.30;51.20;;;;;;4884813;28;45215;-71
2022/10/20 10:43:12;;;;;;;0.80;0.80;;;21.40;51.10;;;;;;4902409;28;45426;-72
2022/10/20 10:45:57;;;;;;;1.10;1.00;;;21.30;51.20;;;;;;4900301;28;45607;-71
2022/10/20 10:48:51;;;;;;;2.60;1.00;;;21.30;51.10;;;;;;4914747;28;46018;-73
2022/10/20 10:51:49;;;;;;;1.23;0.73;;;21.30;51.10;;;;;;4913402;28;45162;-73
2022/10/20 10:54:54;;;;;;;1.42;1.02;;;21.30;51.10;;;;;;4900079;28;44903;-73
2022/10/20 10:57:25;;;;;;;1.33;1.00;;;21.30;51.10;;;;;;4922066;28;45217;-71
2022/10/20 10:59:51;;;;;;;1.52;1.17;;;21.30;51.20;;;;;;4916614;28;45311;-72
2022/10/20 11:02:25;;;;;;;1.05;0.70;;;21.30;51.20;;;;;;4876892;28;45277;-72
2022/10/20 11:05:09;;;;;;;1.15;1.05;;;21.30;51.20;;;;;;4901782;28;44776;-71
2022/10/20 11:07:53;;;;;;;1.23;0.90;;;21.30;51.20;;;;;;4912540;28;45303;-72
2022/10/20 11:10:47;;;;;;;1.10;0.85;;;21.30;51.20;;;;;;4894434;28;46783;-72
2022/10/20 11:13:15;;;;;;;;;;;21.30;51.20;;;;;;4898615;28;44784;-72
2022/10/20 11:16:06;;;;;;;0.90;0.63;;;21.30;51.20;;;;;;4908522;28;44659;-72
2022/10/20 11:18:52;;;;;;;1.15;0.82;;;21.20;51.80;;;;;;4900290;28;45701;-73
2022/10/20 11:21:41;;;;;;;2.75;1.15;;;21.30;51.20;;;;;;4897439;28;46879;-71
2022/10/20 11:24:31;;;;;;;0.95;0.60;;;21.20;51.20;;;;;;4900730;28;45094;-71
2022/10/20 11:27:14;;;;;;;1.83;1.00;;;21.20;51.30;;;;;;4878321;28;44713;-72
2022/10/20 11:29:41;;;;;;;;;;;21.20;51.20;;;;;;4895596;28;45029;-73
2022/10/20 11:32:15;;;;;;;0.93;0.80;;;21.20;51.20;;;;;;4890397;28;45274;-72
2022/10/20 11:34:59;;;;;;;1.05;0.93;;;21.20;51.30;;;;;;4892970;28;45713;-71
2022/10/20 11:37:27;;;;;;;0.75;0.75;;;21.20;51.30;;;;;;4899752;28;45242;-73
2022/10/20 11:40:08;;;;;;;1.25;1.10;;;21.20;51.30;;;;;;4875240;28;45207;-73
2022/10/20 11:42:52;;;;;;;1.00;0.82;;;21.20;51.20;;;;;;4894897;28;44878;-72
2022/10/20 11:45:24;;;;;;;1.15;0.98;;;21.20;51.40;;;;;;4915881;28;45197;-72
2022/10/20 11:47:52;;;;;;;1.88;1.00;;;21.20;51.30;;;;;;4917333;28;45372;-73
2022/10/20 11:50:18;;;;;;;0.80;0.80;;;21.20;51.40;;;;;;4871038;28;45154;-71
2022/10/20 11:52:52;;;;;;;0.82;0.82;;;21.20;51.40;;;;;;4885798;28;45217;-72
2022/10/20 11:55:38;;;;;;;1.05;0.80;;;21.20;51.40;;;;;;4915476;28;45461;-71
2022/10/20 11:58:26;;;;;;;1.00;0.90;;;21.20;51.30;;;;;;4904114;28;45226;-71
2022/10/20 12:01:23;;;;;;;0.70;0.70;;;21.20;51.40;;;;;;4904406;28;45353;-73
2022/10/20 12:04:22;;;;;;;1.17;0.95;;;21.20;51.10;;;;;;4901208;28;45292;-71
2022/10/20 12:07:26;;;;;;;1.10;1.00;;;21.20;51.10;;;;;;4906422;28;44672;-73
2022/10/20 12:10:02;;;;;;;0.90;0.90;;;21.20;51.20;;;;;;4913985;28;45556;-73
2022/10/20 12:13:02;;;;;;;1.13;1.00;;;21.20;51.20;;;;;;4909076;28;45056;-73
2022/10/20 12:15:28;;;;;;;0.93;0.73;;;21.20;51.30;;;;;;4855594;28;47030;-73
2022/10/20 12:17:56;;;;;;;1.13;0.80;;;21.20;51.30;;;;;;4921561;28;44939;-72
2022/10/20 12:20:22;;;;;;;1.05;0.95;;;21.20;51.20;;;;;;4881681;28;45182;-73
2022/10/20 12:22:49;;;;;;;0.82;0.82;;;21.20;51.30;;;;;;4917643;28;45262;-73
2022/10/20 12:25:23;;;;;;;0.73;0.73;;;21.20;51.20;;;;;;4883067;28;45064;-73
2022/10/20 12:28:23;;;;;;;1.10;1.00;;;21.20;51.20;;;;;;4902551;28;45411;-72
2022/10/20 12:30:56;;;;;;;1.02;0.88;;;21.20;51.10;;;;;;4919842;28;45291;-73
2022/10/20 12:33:58;;;;;;;0.93;0.90;;;21.20;51.20;;;;;;4902217;28;45616;-71
2022/10/20 12:36:36;;;;;;;1.33;0.90;;;21.20;51.20;;;;;;4891656;28;45332;-71
2022/10/20 12:39:11;;;;;;;0.90;0.82;;;21.20;51.30;;;;;;4863767;28;45143;-71
2022/10/20 12:41:44;;;;;;;0.82;0.75;;;21.20;51.30;;;;;;4902038;28;45104;-72
2022/10/20 12:44:16;;;;;;;1.23;0.90;;;21.10;51.30;;;;;;4906798;28;44716;-73
2022/10/20 12:46:51;;;;;;;1.60;1.27;;;21.20;51.30;;;;;;4901106;28;46033;-72
2022/10/20 12:49:36;;;;;;;0.80;0.80;;;21.10;51.30;;;;;;4879957;28;44776;-72
2022/10/20 12:52:02;;;;;;;1.10;0.90;;;21.10;51.20;;;;;;4884637;28;45334;-72
2022/10/20 12:54:39;;;;;;;1.02;0.93;;;21.10;51.40;;;;;;4900476;28;45424;-73
2022/10/20 12:57:27;;;;;;;1.15;0.93;;;21.10;51.40;;;;;;4887087;28;45156;-71
2022/10/20 12:59:52;;;;;;;1.48;0.90;;;21.10;51.30;;;;;;4861677;28;45232;-72
2022/10/20 13:02:22;;;;;;;1.73;0.95;;;21.10;51.40;;;;;;4905434;28;44911;-72
2022/10/20 13:04:54;;;;;;;1.58;1.10;;;21.10;51.40;;;;;;4909158;28;45437;-71
2022/10/20 13:07:45;;;;;;;0.80;0.80;;;21.10;51.40;;;;;;4900378;28;45748;-72
2022/10/20 13:10:29;;;;;;;1.45;1.08;;;21.10;51.30;;;;;;4879719;28;45533;-72
2022/10/20 13:13:00;;;;;;;1.10;0.80;;;21.10;51.30;;;;;;4917100;28;45538;-72
2022/10/20 13:15:42;;;;;;;0.82;0.82;;;21.10;51.40;;;;;;4917387;28;45788;-71
2022/10/20 13:18:14;;;;;;;1.05;0.88;;;21.10;51.40;;;;;;4884529;28;45883;-72
2022/10/20 13:20:59;;;;;;;1.88;1.08;;;21.10;51.50;;;;;;4904988;28;45307;-71
2022/10/20 13:23:41;;;;;;;0.98;0.90;;;21.10;51.50;;;;;;4912710;28;45542;-73
2022/10/20 13:26:43;;;;;;;1.10;0.98;;;21.10;51.50;;;;;;4884705;28;45224;-72
2022/10/20 13:29:17;;;;;;;0.88;0.75;;;21.10;51.30;;;;;;4908676;28;45604;-72
2022/10/20 13:32:15;;;;;;;0.85;0.80;;;21.10;51.40;;;;;;4881652;28;44789;-71
2022/10/20 13:34:46;;;;;;;1.10;1.00;;;21.10;51.30;;;;;;4918476;28;45626;-72
2022/10/20 13:37:26;;;;;;;1.50;1.20;;;21.10;51.40;;;;;;4899197;28;45267;-72
2022/10/20 13:40:11;;;;;;;4.22;1.00;;;21.10;51.30;;;;;;4899395;28;45493;-72
2022/10/20 13:42:55;;;;;;;1.20;0.95;;;21.10;51.30;;;;;;4862679;28;45433;-72
2022/10/20 13:45:56;;;;;;;1.10;0.95;;;21.10;51.40;;;;;;4901762;28;45255;-72
2022/10/20 13:48:35;;;;;;;2.10;0.80;;;21.10;51.30;;;;;;4897782;28;45694;-73
2022/10/20 13:51:09;;;;;;;1.27;0.90;;;21.10;51.40;;;;;;4900629;28;45464;-72
2022/10/20 13:53:42;;;;;;;1.33;1.13;;;21.10;51.40;;;;;;4915233;28;45375;-71
2022/10/20 13:56:17;;;;;;;1.00;0.90;;;21.10;51.40;;;;;;4874768;28;45317;-72
2022/10/20 13:59:02;;;;;;;1.45;0.85;;;21.10;51.30;;;;;;4914092;28;45318;-72
2022/10/20 14:01:29;;;;;;;0.80;0.80;;;21.10;51.20;;;;;;4897845;28;45241;-72
2022/10/20 14:03:54;;;;;;;1.38;0.90;;;21.10;51.30;;;;;;4882277;28;45397;-72
2022/10/20 14:06:26;;;;;;;0.77;0.77;;;21.10;51.40;;;;;;4895591;28;44948;-72
2022/10/20 14:08:56;;;;;;;2.25;1.00;;;21.10;51.30;;;;;;4915936;28;45301;-72
2022/10/20 14:11:22;;;;;;;1.52;1.02;;;21.10;51.40;;;;;;4900441;28;46569;-73
2022/10/20 14:13:48;;;;;;;1.17;1.08;;;21.10;51.50;;;;;;4894298;28;45131;-72
2022/10/20 14:16:21;;;;;;;0.80;0.80;;;21.10;51.40;;;;;;4887389;28;45313;-72
2022/10/20 14:19:08;;;;;;;1.38;0.90;;;21.10;51.40;;;;;;4877515;28;45272;-72
2022/10/20 14:21:44;;;;;;;0.90;0.85;;;21.10;51.30;;;;;;4896400;28;45599;-72
2022/10/20 14:24:15;;;;;;;0.90;0.90;;;21.00;51.30;;;;;;4882440;28;45229;-71
2022/10/20 14:26:42;;;;;;;1.25;1.00;;;21.00;51.40;;;;;;4886320;28;45330;-72
2022/10/20 14:29:13;;;;;;;1.25;1.00;;;21.00;51.40;;;;;;4899365;28;45274;-72
2022/10/20 14:31:38;;;;;;;1.10;1.00;;;21.00;51.40;;;;;;4884366;28;45935;-71
2022/10/20 14:34:04;;;;;;;1.15;1.05;;;21.00;51.40;;;;;;4885830;28;45556;-73
2022/10/20 14:36:29;;;;;;;1.20;1.00;;;21.00;51.40;;;;;;4880301;28;45079;-72
2022/10/20 14:38:57;;;;;;;3.25;1.10;;;21.00;51.40;;;;;;4898436;28;45211;-71
2022/10/20 14:41:33;;;;;;;1.20;1.10;;;21.00;51.40;;;;;;4910038;28;44882;-72
2022/10/20 14:44:03;;;;;;;1.85;0.90;;;21.00;51.40;;;;;;4884764;29;45063;-73
2022/10/20 14:46:31;;;;;;;1.13;1.02;;;21.00;51.40;;;;;;4904323;28;45219;-70
2022/10/20 14:48:57;;;;;;;1.10;1.00;;;21.00;51.50;;;;;;4905613;28;44634;-71
2022/10/20 14:51:43;;;;;;;1.13;1.02;;;21.00;51.50;;;;;;4887649;28;45311;-72
2022/10/20 14:54:18;;;;;;;1.13;1.02;;;21.00;51.40;;;;;;4879186;28;45166;-72
2022/10/20 14:57:10;;;;;;;1.30;1.20;;;21.10;51.30;;;;;;4914617;28;45471;-71
2022/10/20 14:59:50;;;;;;;1.10;1.00;;;21.10;51.30;;;;;;4898443;28;45246;-71
2022/10/20 15:02:19;;;;;;;1.45;1.33;;;21.10;51.30;;;;;;4877524;28;45493;-72
2022/10/20 15:04:45;;;;;;;1.17;1.00;;;21.10;51.30;;;;;;4901230;28;44658;-72
2022/10/20 15:07:15;;;;;;;1.00;0.93;;;21.10;51.20;;;;;;4871653;28;45383;-70
2022/10/20 15:09:45;;;;;;;1.02;0.82;;;21.10;51.20;;;;;;4883560;28;45730;-71
2022/10/20 15:12:19;;;;;;;1.25;0.90;;;21.10;51.20;;;;;;4892459;28;45174;-71
2022/10/20 15:14:48;;;;;;;1.02;0.82;;;21.20;51.20;;;;;;4881257;28;45209;-72
2022/10/20 15:17:42;;;;;;;1.00;0.90;;;21.10;51.20;;;;;;4862233;28;45343;-70
2022/10/20 15:20:26;;;;;;;1.23;1.05;;;21.20;51.20;;;;;;4865528;28;45088;-70
2022/10/20 15:22:52;;;;;;;1.17;0.98;;;21.20;51.20;;;;;;4919036;28;45194;-71
2022/10/20 15:25:18;;;;;;;1.65;0.95;;;21.10;51.30;;;;;;4866837;28;45160;-72
2022/10/20 15:27:43;;;;;;;1.98;1.00;;;21.10;51.40;;;;;;4881101;28;45234;-75
2022/10/20 15:30:15;;;;;;;1.20;1.10;;;21.10;51.40;;;;;;4909492;28;45338;-71
2022/10/20 15:32:41;;;;;;;0.90;0.85;;;21.10;51.30;;;;;;4878550;28;45251;-74
2022/10/20 15:35:15;;;;;;;2.08;0.90;;;21.10;51.50;;;;;;4872737;28;45295;-73
2022/10/20 15:37:41;;;;;;;0.98;0.93;;;21.10;51.40;;;;;;4892069;28;45619;-71
2022/10/20 15:40:07;;;;;;;2.00;1.00;;;21.10;51.40;;;;;;4898733;28;45060;-72
2022/10/20 15:42:33;;;;;;;1.42;1.15;;;21.10;51.40;;;;;;4904086;28;45339;-72
2022/10/20 15:44:58;;;;;;;1.13;0.95;;;21.10;51.40;;;;;;4878888;28;45171;-70
2022/10/20 15:47:24;;;;;;;1.10;0.90;;;21.10;51.40;;;;;;4896055;28;45645;-72
2022/10/20 15:49:50;;;;;;;1.27;1.17;;;21.10;51.40;;;;;;4875328;28;45604;-70
2022/10/20 15:52:16;;;;;;;1.10;0.90;;;21.10;51.40;;;;;;4896179;28;45365;-74
2022/10/20 15:54:42;;;;;;;2.55;1.30;;;21.10;51.50;;;;;;4890572;28;45431;-72
2022/10/20 15:57:08;;;;;;;1.17;1.08;;;21.10;51.50;;;;;;4914098;28;45556;-71
2022/10/20 15:59:33;;;;;;;1.00;0.93;;;21.00;51.40;;;;;;4909267;28;45310;-72
2022/10/20 16:02:01;;;;;;;1.10;0.95;;;21.10;51.50;;;;;;4879121;28;45682;-70
2022/10/20 16:04:27;;;;;;;1.10;1.00;;;21.00;51.40;;;;;;4893757;28;45187;-72
2022/10/20 16:06:54;;;;;;;1.65;1.05;;;21.00;51.40;;;;;;4882007;28;45297;-70
2022/10/20 16:09:20;;;;;;;1.15;0.98;;;21.10;51.50;;;;;;4875534;28;45382;-71
2022/10/20 16:11:46;;;;;;;1.98;1.30;;;21.00;51.40;;;;;;4916596;28;45880;-74
2022/10/20 16:14:12;;;;;;;1.73;0.90;;;21.00;51.40;;;;;;4866851;28;45217;-74
2022/10/20 16:16:38;;;;;;;0.80;0.80;;;21.00;51.60;;;;;;4878194;28;45604;-71
2022/10/20 16:19:03;;;;;;;1.80;1.05;;;21.00;51.50;;;;;;4900962;28;45718;-71
2022/10/20 16:21:29;;;;;;;1.20;1.08;;;21.00;51.50;;;;;;4893319;28;45298;-75
2022/10/20 16:23:55;;;;;;;0.85;0.85;;;21.00;51.50;;;;;;4888178;28;45366;-73
2022/10/20 16:26:20;;;;;;;1.10;1.00;;;21.00;51.50;;;;;;4886907;28;45717;-73
2022/10/20 16:28:46;;;;;;;1.05;0.95;;;21.00;51.50;;;;;;4887271;28;45467;-73
2022/10/20 16:31:13;;;;;;;1.25;1.10;;;21.00;51.50;;;;;;4883994;28;45288;-72
2022/10/20 16:33:38;;;;;;;1.27;1.10;;;21.00;51.60;;;;;;4887586;28;45315;-71
2022/10/20 16:36:08;;;;;;;1.15;1.05;;;20.90;51.50;;;;;;4895070;28;44677;-75